Time;durP1;ratioP1;P1;durP2;ratioP2;P2;SDS_P1;SDS_P2;PMS_P1;PMS_P2;Temp;Humidity;BMP_temperature;BMP_pressure;BME280_temperature;BME280_humidity;BME280_pressure;Samples;Min_cycle;Max_cycle;Signal;HPM_P1;HPM_P2
2021/06/27 00:00:37;;;;;;;0.00;0.00;;;;;;;20.81;66.31;98748.31;5091274;28;20050;-72
2021/06/27 00:03:03;;;;;;;0.57;0.57;;;;;;;20.78;66.16;98749.03;5090957;28;20024;-72
2021/06/27 00:05:30;;;;;;;0.00;0.00;;;;;;;20.76;66.71;98754.03;5090972;28;20035;-72
2021/06/27 00:07:56;;;;;;;0.03;0.03;;;;;;;20.73;66.39;98752.78;5091083;28;20039;-72
2021/06/27 00:10:32;;;;;;;0.00;0.00;;;;;;;20.73;66.32;98754.72;5091132;28;20028;-72
2021/06/27 00:12:59;;;;;;;0.00;0.00;;;;;;;20.72;66.46;98758.59;5090955;28;20024;-72
2021/06/27 00:15:46;;;;;;;0.00;0.00;;;;;;;20.72;66.50;98753.94;5090855;28;20407;-72
2021/06/27 00:18:14;;;;;;;0.00;0.00;;;;;;;20.70;66.37;98761.63;5090722;28;20036;-72
2021/06/27 00:20:42;;;;;;;0.03;0.03;;;;;;;20.69;66.31;98760.06;5091084;28;20051;-72
2021/06/27 00:23:09;;;;;;;0.00;0.00;;;;;;;20.66;66.39;98760.75;5090824;28;20034;-72
2021/06/27 00:25:35;;;;;;;0.00;0.00;;;;;;;20.67;66.45;98765.03;5091860;28;20044;-72
2021/06/27 00:28:02;;;;;;;0.10;0.10;;;;;;;20.66;66.26;98759.97;5094893;28;20106;-72
2021/06/27 00:30:29;;;;;;;0.00;0.00;;;;;;;20.61;66.28;98763.72;5095098;28;20060;-72
2021/06/27 00:32:55;;;;;;;0.00;0.00;;;;;;;20.58;66.23;98773.38;5095073;28;20125;-72
2021/06/27 00:35:23;;;;;;;0.00;0.00;;;;;;;20.59;66.15;98772.22;5094816;28;20466;-72
2021/06/27 00:37:49;;;;;;;0.00;0.00;;;;;;;20.54;66.34;98761.59;5094581;28;20028;-72
2021/06/27 00:40:19;;;;;;;0.05;0.05;;;;;;;20.56;66.33;98761.28;5094444;28;20093;-72
2021/06/27 00:42:45;;;;;;;0.00;0.00;;;;;;;20.55;66.47;98765.91;5094976;28;20458;-72
2021/06/27 00:45:13;;;;;;;0.00;0.00;;;;;;;20.54;66.31;98756.16;5094552;28;20020;-72
2021/06/27 00:47:40;;;;;;;0.00;0.00;;;;;;;20.57;66.19;98749.28;5094805;28;20059;-72
2021/06/27 00:50:08;;;;;;;0.00;0.00;;;;;;;20.57;66.55;98752.00;5094538;28;20028;-72
2021/06/27 00:52:33;;;;;;;;;;;;;;;20.59;66.54;98747.78;5095085;28;20026;-72
2021/06/27 00:54:59;;;;;;;0.10;0.10;;;;;;;20.55;66.21;98738.75;5094676;28;19912;-72
2021/06/27 00:57:24;;;;;;;0.00;0.00;;;;;;;20.55;66.27;98744.16;5094224;28;20478;-72
2021/06/27 00:59:50;;;;;;;0.05;0.05;;;;;;;20.55;66.17;98743.41;5094497;28;20020;-72
2021/06/27 01:02:16;;;;;;;0.00;0.00;;;;;;;20.55;66.25;98740.69;5094221;28;20028;-72
2021/06/27 01:04:41;;;;;;;0.00;0.00;;;;;;;20.57;66.32;98747.34;5094470;28;20028;-72
2021/06/27 01:07:07;;;;;;;0.00;0.00;;;;;;;20.56;66.53;98745.75;5094137;28;20093;-72
2021/06/27 01:09:33;;;;;;;0.00;0.00;;;;;;;20.57;66.25;98732.97;5094067;28;20032;-72
2021/06/27 01:12:00;;;;;;;0.00;0.00;;;;;;;20.54;66.07;98726.28;5094389;28;20479;-72
2021/06/27 01:14:26;;;;;;;0.00;0.00;;;;;;;20.53;66.23;98716.59;5094291;28;20031;-72
2021/06/27 01:16:52;;;;;;;0.10;0.10;;;;;;;20.55;66.16;98730.59;5094111;28;20028;-72
2021/06/27 01:19:17;;;;;;;0.00;0.00;;;;;;;20.50;65.88;98722.72;5093930;28;20035;-72
2021/06/27 01:21:43;;;;;;;0.00;0.00;;;;;;;20.48;65.93;98720.34;5075500;28;20590;-72
2021/06/27 01:24:09;;;;;;;0.10;0.10;;;;;;;20.43;66.05;98717.09;5093851;28;20035;-73
2021/06/27 01:26:35;;;;;;;0.00;0.00;;;;;;;20.40;65.75;98718.59;5075818;28;20102;-72
2021/06/27 01:29:01;;;;;;;0.00;0.00;;;;;;;20.35;66.02;98721.56;5093911;28;20035;-72
2021/06/27 01:31:27;;;;;;;0.00;0.00;;;;;;;20.29;65.82;98729.19;5094056;28;20035;-72
2021/06/27 01:33:54;;;;;;;0.03;0.03;;;;;;;20.27;65.91;98733.38;5093974;28;20051;-72
2021/06/27 01:36:20;;;;;;;0.00;0.00;;;;;;;20.23;66.36;98730.56;5093409;28;20109;-72
2021/06/27 01:38:45;;;;;;;0.00;0.00;;;;;;;20.20;66.40;98720.41;5093742;28;20016;-73
2021/06/27 01:41:11;;;;;;;0.08;0.08;;;;;;;20.19;66.11;98718.84;5093793;28;20028;-72
2021/06/27 01:43:36;;;;;;;0.00;0.00;;;;;;;20.14;66.02;98717.16;5093767;28;20031;-72
2021/06/27 01:46:02;;;;;;;0.10;0.10;;;;;;;20.13;66.07;98718.28;5093410;28;20020;-72
2021/06/27 01:48:31;;;;;;;0.08;0.08;;;;;;;20.06;66.22;98712.69;5093924;28;20077;-73
2021/06/27 01:50:58;;;;;;;0.00;0.00;;;;;;;20.00;66.35;98709.41;5092467;28;20115;-72
2021/06/27 01:53:27;;;;;;;0.00;0.00;;;;;;;19.94;66.34;98705.38;5093246;28;20025;-72
2021/06/27 01:56:06;;;;;;;0.00;0.00;;;;;;;19.85;66.44;98710.19;5093545;28;20032;-72
2021/06/27 01:58:42;;;;;;;0.00;0.00;;;;;;;19.84;66.73;98714.81;5093410;28;20463;-72
2021/06/27 02:01:13;;;;;;;0.00;0.00;;;;;;;19.82;66.75;98719.78;5093144;28;20020;-72
2021/06/27 02:03:38;;;;;;;0.10;0.10;;;;;;;19.84;66.66;98714.81;5093077;28;20077;-72
2021/06/27 02:06:05;;;;;;;0.00;0.00;;;;;;;19.84;66.86;98709.38;5093102;28;20028;-72
2021/06/27 02:08:35;;;;;;;0.08;0.08;;;;;;;19.82;66.60;98708.13;5093186;28;20398;-72
2021/06/27 02:11:03;;;;;;;0.03;0.03;;;;;;;19.80;66.60;98705.75;5093144;28;20103;-72
2021/06/27 02:13:28;;;;;;;0.00;0.00;;;;;;;19.81;66.69;98695.69;5092916;28;20107;-72
2021/06/27 02:15:55;;;;;;;0.90;0.55;;;;;;;19.82;66.64;98702.69;5093049;28;20107;-72
2021/06/27 02:18:33;;;;;;;0.00;0.00;;;;;;;19.86;66.75;98698.19;5092747;28;20157;-72
2021/06/27 02:21:02;;;;;;;0.00;0.00;;;;;;;19.84;66.74;98705.88;5092989;28;20028;-72
2021/06/27 02:23:28;;;;;;;0.00;0.00;;;;;;;19.82;66.44;98700.78;5092476;28;20391;-72
2021/06/27 02:25:53;;;;;;;0.10;0.10;;;;;;;19.81;66.66;98706.53;5092390;28;20081;-72
2021/06/27 02:28:19;;;;;;;0.10;0.10;;;;;;;19.78;66.79;98704.53;5092625;28;20423;-72
2021/06/27 02:30:44;;;;;;;0.00;0.00;;;;;;;19.75;66.82;98705.22;5074443;28;20056;-72
2021/06/27 02:33:10;;;;;;;0.00;0.00;;;;;;;19.72;66.82;98714.06;5092268;28;20050;-72
2021/06/27 02:35:36;;;;;;;0.10;0.10;;;;;;;19.71;66.99;98713.25;5092697;28;20471;-72
2021/06/27 02:38:02;;;;;;;0.00;0.00;;;;;;;19.65;67.04;98710.00;5092357;28;20031;-72
2021/06/27 02:40:28;;;;;;;0.00;0.00;;;;;;;19.68;67.22;98711.25;5092420;28;20032;-73
2021/06/27 02:42:54;;;;;;;0.00;0.00;;;;;;;19.64;66.95;98710.34;5092528;28;20371;-73
2021/06/27 02:45:20;;;;;;;0.10;0.10;;;;;;;19.63;67.03;98719.63;5092340;28;20399;-72
2021/06/27 02:47:46;;;;;;;0.00;0.00;;;;;;;19.63;67.07;98711.50;5092202;28;20028;-72
2021/06/27 02:50:14;;;;;;;0.00;0.00;;;;;;;19.62;67.06;98702.56;5091546;28;20099;-72
2021/06/27 02:52:40;;;;;;;;;;;;;;;19.70;67.26;98713.59;5092864;28;20024;-72
2021/06/27 02:55:08;;;;;;;0.10;0.10;;;;;;;19.71;67.25;98709.75;5092032;28;20037;-72
2021/06/27 02:57:34;;;;;;;0.45;0.40;;;;;;;19.71;67.53;98715.97;5092212;28;20546;-72
2021/06/27 02:59:59;;;;;;;0.00;0.00;;;;;;;19.77;67.34;98716.50;5092004;28;20099;-72
2021/06/27 03:02:25;;;;;;;0.00;0.00;;;;;;;19.83;67.08;98715.13;5092001;28;20039;-72
2021/06/27 03:04:50;;;;;;;0.00;0.00;;;;;;;19.92;67.21;98718.53;5092012;28;20081;-72
2021/06/27 03:07:16;;;;;;;0.00;0.00;;;;;;;20.08;66.97;98713.13;5091916;28;20046;-72
2021/06/27 03:09:41;;;;;;;0.00;0.00;;;;;;;20.31;66.75;98705.19;5092089;28;20077;-73
2021/06/27 03:12:07;;;;;;;0.05;0.05;;;;;;;20.53;65.54;98713.88;5092060;28;20024;-72
2021/06/27 03:14:32;;;;;;;0.00;0.00;;;;;;;20.73;65.14;98713.97;5073548;28;20031;-72
2021/06/27 03:16:58;;;;;;;0.00;0.00;;;;;;;20.93;64.90;98712.09;5091869;28;20027;-73
2021/06/27 03:19:23;;;;;;;0.00;0.00;;;;;;;21.10;64.39;98706.28;5091275;28;20073;-72
2021/06/27 03:21:49;;;;;;;0.00;0.00;;;;;;;21.35;63.33;98697.88;5091604;28;20065;-72
2021/06/27 03:24:14;;;;;;;0.00;0.00;;;;;;;21.65;62.33;98691.09;5091438;28;20035;-73
2021/06/27 03:26:41;;;;;;;0.00;0.00;;;;;;;22.00;61.71;98692.94;5091683;28;20106;-72
2021/06/27 03:29:06;;;;;;;0.08;0.08;;;;;;;22.32;60.23;98685.31;5091681;28;20036;-73
2021/06/27 03:31:32;;;;;;;0.00;0.00;;;;;;;22.56;58.96;98691.56;5091352;28;20024;-72
2021/06/27 03:33:57;;;;;;;0.00;0.00;;;;;;;22.94;58.27;98697.19;5091410;28;20023;-73
2021/06/27 03:36:22;;;;;;;0.00;0.00;;;;;;;23.29;57.52;98696.94;5091364;28;20028;-73
2021/06/27 03:38:56;;;;;;;0.03;0.03;;;;;;;23.47;56.73;98686.25;5091511;28;20028;-72
2021/06/27 03:41:23;;;;;;;0.00;0.00;;;;;;;23.86;55.18;98687.81;5091199;28;20020;-72
2021/06/27 03:43:49;;;;;;;0.00;0.00;;;;;;;24.18;55.01;98687.41;5091568;28;20031;-73
2021/06/27 03:46:15;;;;;;;0.00;0.00;;;;;;;24.58;53.49;98693.19;5091247;28;20081;-72
2021/06/27 03:48:41;;;;;;;0.00;0.00;;;;;;;24.94;53.17;98693.47;5073281;28;20402;-71
2021/06/27 03:51:07;;;;;;;0.00;0.00;;;;;;;25.37;52.06;98698.38;5091420;28;20101;-71
2021/06/27 03:53:32;;;;;;;0.00;0.00;;;;;;;25.87;50.93;98700.53;5091090;28;20028;-71
2021/06/27 03:55:58;;;;;;;0.00;0.00;;;;;;;26.35;49.65;98696.69;5091330;28;20360;-72
2021/06/27 03:58:27;;;;;;;0.00;0.00;;;;;;;26.83;48.79;98695.53;5090960;28;20020;-73
2021/06/27 04:00:53;;;;;;;0.00;0.00;;;;;;;27.14;47.26;98693.88;5091202;28;20024;-71
2021/06/27 04:03:19;;;;;;;0.15;0.15;;;;;;;27.55;46.54;98697.28;5091270;28;20028;-71
2021/06/27 04:05:45;;;;;;;0.00;0.00;;;;;;;27.94;45.53;98691.59;5091236;28;20479;-71
2021/06/27 04:08:10;;;;;;;0.00;0.00;;;;;;;28.40;44.74;98688.94;5091171;28;20028;-71
2021/06/27 04:10:35;;;;;;;0.00;0.00;;;;;;;28.84;44.14;98692.88;5090567;28;20103;-71
2021/06/27 04:13:01;;;;;;;0.00;0.00;;;;;;;29.33;42.79;98689.25;5091094;28;20474;-71
2021/06/27 04:15:27;;;;;;;0.00;0.00;;;;;;;29.76;42.02;98688.69;5090902;28;20027;-71
2021/06/27 04:17:52;;;;;;;0.00;0.00;;;;;;;30.17;40.67;98695.22;5091296;28;20486;-71
2021/06/27 04:20:18;;;;;;;0.00;0.00;;;;;;;30.59;40.09;98708.75;5090825;28;20024;-71
2021/06/27 04:22:43;;;;;;;0.00;0.00;;;;;;;31.01;39.17;98713.94;5091117;28;20055;-72
2021/06/27 04:25:10;;;;;;;0.00;0.00;;;;;;;31.39;37.98;98708.09;5090979;28;20090;-71
2021/06/27 04:27:36;;;;;;;0.00;0.00;;;;;;;31.75;37.87;98708.13;5090952;28;20120;-71
2021/06/27 04:30:04;;;;;;;0.00;0.00;;;;;;;32.10;36.97;98704.97;5090851;28;20032;-71
2021/06/27 04:32:29;;;;;;;;;;;;;;;32.47;36.68;98716.00;5073014;28;20453;-71
2021/06/27 04:34:54;;;;;;;0.00;0.00;;;;;;;32.54;35.50;98715.81;5090766;28;19962;-71
2021/06/27 04:37:20;;;;;;;0.00;0.00;;;;;;;32.66;35.27;98714.34;5090581;28;20313;-71
2021/06/27 04:39:46;;;;;;;0.00;0.00;;;;;;;32.81;35.66;98725.84;5090894;28;20498;-71
2021/06/27 04:42:11;;;;;;;0.00;0.00;;;;;;;32.99;34.62;98722.59;5090896;28;20024;-71
2021/06/27 04:44:37;;;;;;;0.30;0.30;;;;;;;32.95;33.26;98724.72;5090326;28;20035;-71
2021/06/27 04:47:03;;;;;;;0.10;0.10;;;;;;;32.86;34.46;98728.06;5089430;28;20027;-71
2021/06/27 04:49:28;;;;;;;2.60;1.10;;;;;;;32.96;34.48;98743.66;5090531;28;20024;-71
2021/06/27 04:51:54;;;;;;;0.00;0.00;;;;;;;33.03;34.60;98743.47;5090779;28;20021;-71
2021/06/27 04:54:19;;;;;;;0.25;0.25;;;;;;;33.23;34.00;98750.06;5090160;28;20032;-72
2021/06/27 04:56:45;;;;;;;0.00;0.00;;;;;;;33.35;33.55;98752.16;5090713;28;20121;-72
2021/06/27 04:59:10;;;;;;;0.00;0.00;;;;;;;33.49;33.54;98746.16;5090316;28;20024;-71
2021/06/27 05:01:36;;;;;;;0.00;0.00;;;;;;;33.65;33.20;98750.09;5090506;28;20030;-72
2021/06/27 05:04:02;;;;;;;0.00;0.00;;;;;;;33.84;33.20;98743.59;5090651;28;20063;-72
2021/06/27 05:06:27;;;;;;;0.00;0.00;;;;;;;34.09;33.08;98744.06;5090328;28;20101;-72
2021/06/27 05:08:53;;;;;;;0.05;0.05;;;;;;;34.29;32.71;98749.38;5090566;28;20043;-72
2021/06/27 05:11:18;;;;;;;0.00;0.00;;;;;;;34.55;31.84;98747.38;5090428;28;20479;-71
2021/06/27 05:13:44;;;;;;;0.00;0.00;;;;;;;34.74;31.67;98755.88;5094293;28;20031;-71
2021/06/27 05:16:10;;;;;;;0.00;0.00;;;;;;;34.90;30.85;98766.84;5094223;28;20032;-71
2021/06/27 05:18:35;;;;;;;0.00;0.00;;;;;;;34.97;30.73;98776.94;5094065;28;20031;-71
2021/06/27 05:21:02;;;;;;;0.10;0.10;;;;;;;35.06;31.27;98771.47;5094143;28;20172;-72
2021/06/27 05:23:27;;;;;;;0.10;0.10;;;;;;;34.92;31.01;98778.31;5093943;28;20060;-71
2021/06/27 05:25:54;;;;;;;0.00;0.00;;;;;;;34.71;31.64;98776.22;5093637;28;20185;-71
2021/06/27 05:28:19;;;;;;;0.00;0.00;;;;;;;34.76;31.59;98770.09;5093579;28;20028;-71
2021/06/27 05:30:44;;;;;;;0.00;0.00;;;;;;;34.69;31.49;98779.41;5093899;28;20502;-71
2021/06/27 05:33:10;;;;;;;0.00;0.00;;;;;;;34.67;31.25;98786.66;5094182;28;20020;-71
2021/06/27 05:35:35;;;;;;;0.10;0.10;;;;;;;34.83;31.45;98786.50;5093655;28;20032;-71
2021/06/27 05:38:01;;;;;;;0.10;0.10;;;;;;;35.08;31.02;98791.25;5094083;28;20024;-73
2021/06/27 05:40:26;;;;;;;0.00;0.00;;;;;;;35.03;31.49;98796.59;5075368;28;20024;-73
2021/06/27 05:42:52;;;;;;;0.00;0.00;;;;;;;34.77;30.49;98777.97;5093426;28;20034;-73
2021/06/27 05:45:17;;;;;;;0.00;0.00;;;;;;;34.67;31.63;98779.09;5093442;28;20046;-72
2021/06/27 05:47:43;;;;;;;0.17;0.17;;;;;;;34.68;31.26;98785.44;5093358;28;20028;-72
2021/06/27 05:50:09;;;;;;;0.00;0.00;;;;;;;34.64;30.89;98799.44;5093610;28;20054;-73
2021/06/27 05:52:34;;;;;;;0.00;0.00;;;;;;;34.53;31.58;98796.22;5093310;28;20024;-73
2021/06/27 05:55:00;;;;;;;0.00;0.00;;;;;;;34.49;31.90;98793.56;5093063;28;20030;-72
2021/06/27 05:57:25;;;;;;;0.30;0.20;;;;;;;34.31;31.72;98802.44;5093161;28;20032;-73
2021/06/27 05:59:51;;;;;;;0.00;0.00;;;;;;;34.38;31.41;98799.47;5093408;28;20457;-72
2021/06/27 06:02:16;;;;;;;0.00;0.00;;;;;;;34.59;31.14;98809.09;5093389;28;20494;-71
2021/06/27 06:04:42;;;;;;;0.00;0.00;;;;;;;34.76;30.67;98801.41;5093345;28;20372;-72
2021/06/27 06:07:07;;;;;;;0.00;0.00;;;;;;;35.04;30.77;98809.25;5093291;28;20028;-73
2021/06/27 06:09:33;;;;;;;0.00;0.00;;;;;;;35.33;30.82;98813.81;5091696;28;20131;-71
2021/06/27 06:11:58;;;;;;;0.10;0.10;;;;;;;35.19;30.50;98813.13;5093111;28;20073;-71
2021/06/27 06:14:23;;;;;;;0.00;0.00;;;;;;;35.02;31.46;98809.72;5092879;28;20024;-73
2021/06/27 06:16:49;;;;;;;0.35;0.30;;;;;;;35.05;31.13;98813.59;5093070;28;20036;-73
2021/06/27 06:19:18;;;;;;;0.00;0.00;;;;;;;35.13;30.99;98814.88;5092607;28;20087;-73
2021/06/27 06:21:45;;;;;;;0.10;0.10;;;;;;;35.19;30.66;98807.56;5092972;28;20084;-73
2021/06/27 06:24:10;;;;;;;0.00;0.00;;;;;;;35.19;30.60;98809.53;5091696;28;20470;-72
2021/06/27 06:26:36;;;;;;;0.00;0.00;;;;;;;34.87;31.62;98806.63;5092723;28;20027;-73
2021/06/27 06:29:01;;;;;;;0.00;0.00;;;;;;;34.63;31.46;98814.53;5092801;28;20024;-73
2021/06/27 06:31:27;;;;;;;0.20;0.20;;;;;;;34.37;31.83;98806.22;5092277;28;20073;-72
2021/06/27 06:33:52;;;;;;;0.00;0.00;;;;;;;34.11;32.54;98814.53;5092613;28;20032;-72
2021/06/27 06:36:17;;;;;;;0.00;0.00;;;;;;;33.97;33.20;98815.75;5092682;28;20060;-73
2021/06/27 06:38:43;;;;;;;0.20;0.20;;;;;;;33.65;32.90;98809.09;5092356;28;20024;-72
2021/06/27 06:41:09;;;;;;;3.70;1.08;;;;;;;33.43;33.30;98805.38;5092637;28;20078;-73
2021/06/27 06:43:34;;;;;;;0.00;0.00;;;;;;;33.15;33.81;98807.66;5091901;28;20027;-73
2021/06/27 06:46:01;;;;;;;0.00;0.00;;;;;;;32.87;34.71;98809.94;5092371;28;20020;-72
2021/06/27 06:48:27;;;;;;;;;;;;;;;32.84;35.30;98805.28;5092714;28;20024;-73
2021/06/27 06:50:52;;;;;;;0.10;0.10;;;;;;;32.84;34.94;98805.28;5092461;28;19908;-72
2021/06/27 06:53:17;;;;;;;0.10;0.10;;;;;;;32.88;35.04;98798.44;5092372;28;20414;-72
2021/06/27 06:55:43;;;;;;;0.00;0.00;;;;;;;32.96;34.59;98804.59;5091874;28;20479;-72
2021/06/27 06:58:08;;;;;;;0.10;0.10;;;;;;;32.78;35.08;98799.50;5092140;28;20035;-72
2021/06/27 07:00:34;;;;;;;0.08;0.08;;;;;;;32.87;35.69;98796.09;5092170;28;20024;-72
2021/06/27 07:02:59;;;;;;;0.00;0.00;;;;;;;32.92;35.07;98803.09;5092164;28;20036;-72
2021/06/27 07:05:25;;;;;;;0.00;0.00;;;;;;;32.98;35.26;98802.16;5091919;28;20027;-73
2021/06/27 07:07:50;;;;;;;0.00;0.00;;;;;;;32.88;34.19;98805.97;5092062;28;20120;-73
2021/06/27 07:10:16;;;;;;;0.08;0.08;;;;;;;32.73;35.67;98806.28;5091542;28;20024;-73
2021/06/27 07:12:42;;;;;;;0.00;0.00;;;;;;;32.74;35.92;98804.31;5091776;28;20090;-72
2021/06/27 07:15:10;;;;;;;0.00;0.00;;;;;;;32.67;36.07;98805.25;5090650;28;20020;-72
2021/06/27 07:17:36;;;;;;;0.00;0.00;;;;;;;32.57;36.13;98807.06;5091487;28;20024;-72
2021/06/27 07:20:02;;;;;;;0.10;0.10;;;;;;;32.55;36.27;98808.72;5091710;28;20115;-72
2021/06/27 07:22:28;;;;;;;0.00;0.00;;;;;;;32.59;37.06;98814.94;5090273;28;20024;-70
2021/06/27 07:24:53;;;;;;;0.28;0.10;;;;;;;32.54;37.14;98819.03;5091536;28;20056;-72
2021/06/27 07:27:18;;;;;;;0.00;0.00;;;;;;;32.41;37.28;98818.91;5091818;28;20472;-72
2021/06/27 07:29:44;;;;;;;0.00;0.00;;;;;;;32.23;37.11;98832.38;5090908;28;20541;-73
2021/06/27 07:32:09;;;;;;;0.03;0.03;;;;;;;32.16;37.82;98829.72;5091361;28;20028;-70
2021/06/27 07:34:35;;;;;;;0.00;0.00;;;;;;;32.11;37.93;98827.47;5090893;28;20483;-71
2021/06/27 07:37:03;;;;;;;0.10;0.10;;;;;;;32.05;37.02;98827.97;5091577;28;20479;-72
2021/06/27 07:39:28;;;;;;;0.00;0.00;;;;;;;32.04;37.37;98829.19;5091220;28;20038;-72
2021/06/27 07:41:53;;;;;;;0.00;0.00;;;;;;;32.00;37.77;98828.47;5091678;28;20129;-72
2021/06/27 07:44:19;;;;;;;0.00;0.00;;;;;;;32.02;37.83;98828.03;5091202;28;20028;-72
2021/06/27 07:46:44;;;;;;;0.05;0.03;;;;;;;32.00;37.65;98814.66;5091152;28;20024;-72
2021/06/27 07:49:10;;;;;;;0.00;0.00;;;;;;;32.06;37.43;98824.00;5091651;28;20050;-73
2021/06/27 07:51:35;;;;;;;0.00;0.00;;;;;;;32.06;37.79;98812.94;5091456;28;20020;-72
2021/06/27 07:54:00;;;;;;;0.00;0.00;;;;;;;32.11;37.93;98810.88;5091365;28;20154;-72
2021/06/27 07:56:26;;;;;;;0.00;0.00;;;;;;;32.15;37.91;98817.09;5090763;28;20027;-72
2021/06/27 07:58:51;;;;;;;0.00;0.00;;;;;;;32.11;37.87;98819.19;5090970;28;20027;-72
2021/06/27 08:01:17;;;;;;;0.08;0.08;;;;;;;32.02;37.99;98828.84;5090901;28;20020;-72
2021/06/27 08:03:42;;;;;;;0.00;0.00;;;;;;;32.06;38.25;98817.69;5090921;28;20031;-73
2021/06/27 08:06:08;;;;;;;0.03;0.03;;;;;;;31.98;36.75;98806.00;5091186;28;20522;-73
2021/06/27 08:08:33;;;;;;;0.05;0.05;;;;;;;31.88;37.06;98812.53;5090631;28;20445;-73
2021/06/27 08:10:58;;;;;;;0.00;0.00;;;;;;;31.84;38.08;98817.38;5091190;28;20024;-72
2021/06/27 08:13:24;;;;;;;0.00;0.00;;;;;;;31.81;38.57;98819.00;5090864;28;20020;-73
2021/06/27 08:15:49;;;;;;;0.00;0.00;;;;;;;31.77;37.76;98807.22;5091116;28;20042;-73
2021/06/27 08:18:15;;;;;;;0.45;0.45;;;;;;;31.80;37.40;98814.69;5091065;28;20028;-72
2021/06/27 08:20:42;;;;;;;0.00;0.00;;;;;;;31.73;38.02;98812.81;5090702;28;20107;-72
2021/06/27 08:23:07;;;;;;;0.10;0.10;;;;;;;31.66;37.65;98812.97;5091059;28;20107;-72
2021/06/27 08:25:33;;;;;;;0.00;0.00;;;;;;;31.68;38.37;98818.09;5090811;28;20128;-72
2021/06/27 08:27:58;;;;;;;0.00;0.00;;;;;;;31.70;38.25;98827.53;5091022;28;20039;-72
2021/06/27 08:30:24;;;;;;;0.00;0.00;;;;;;;31.55;37.16;98813.16;5090707;28;20024;-72
2021/06/27 08:32:50;;;;;;;0.00;0.00;;;;;;;31.52;38.22;98815.97;5090968;28;20020;-72
2021/06/27 08:35:20;;;;;;;0.00;0.00;;;;;;;31.61;36.49;98818.97;5090913;28;20028;-72
2021/06/27 08:37:47;;;;;;;0.00;0.00;;;;;;;31.64;36.50;98814.56;5090628;28;20479;-72
2021/06/27 08:40:15;;;;;;;0.00;0.00;;;;;;;31.56;35.20;98813.94;5090946;28;20482;-72
2021/06/27 08:42:41;;;;;;;0.00;0.00;;;;;;;31.57;35.71;98816.28;5090681;28;20089;-72
2021/06/27 08:45:08;;;;;;;0.00;0.00;;;;;;;31.45;34.50;98817.69;5090838;28;20058;-72
2021/06/27 08:47:35;;;;;;;0.10;0.10;;;;;;;31.34;36.50;98819.09;5092969;28;20031;-72
2021/06/27 08:50:01;;;;;;;0.00;0.00;;;;;;;31.28;37.01;98818.81;5094824;28;20039;-72
2021/06/27 08:52:27;;;;;;;0.20;0.20;;;;;;;31.28;36.73;98824.31;5094551;28;20020;-72
2021/06/27 08:54:52;;;;;;;0.00;0.00;;;;;;;31.17;34.88;98812.69;5094712;28;20024;-72
2021/06/27 08:57:19;;;;;;;0.10;0.10;;;;;;;31.09;34.76;98809.25;5094520;28;20027;-72
2021/06/27 08:59:47;;;;;;;0.00;0.00;;;;;;;31.10;35.40;98808.88;5094366;28;20036;-73
2021/06/27 09:02:13;;;;;;;0.00;0.00;;;;;;;31.16;35.28;98809.13;5094377;28;20482;-72
2021/06/27 09:04:42;;;;;;;0.00;0.00;;;;;;;31.11;34.94;98813.16;5094293;28;20035;-73
2021/06/27 09:07:30;;;;;;;0.00;0.00;;;;;;;31.13;35.06;98812.75;5094347;28;20023;-72
2021/06/27 09:10:23;;;;;;;0.20;0.20;;;;;;;31.17;35.67;98816.22;5094356;28;20047;-72
2021/06/27 09:12:54;;;;;;;0.25;0.25;;;;;;;31.17;34.79;98821.75;5093730;28;20048;-72
2021/06/27 09:15:45;;;;;;;0.00;0.00;;;;;;;31.11;34.73;98815.16;5094306;28;20666;-72
2021/06/27 09:18:13;;;;;;;0.00;0.00;;;;;;;31.13;35.57;98815.53;5094135;28;20028;-72
2021/06/27 09:20:40;;;;;;;0.10;0.10;;;;;;;31.18;35.32;98803.22;5093768;28;20406;-71
2021/06/27 09:23:07;;;;;;;0.10;0.10;;;;;;;31.24;35.32;98805.06;5094114;28;20024;-71
2021/06/27 09:25:34;;;;;;;0.00;0.00;;;;;;;31.26;34.79;98804.63;5093844;28;20051;-71
2021/06/27 09:28:03;;;;;;;4.22;1.00;;;;;;;31.19;34.68;98800.03;5094071;28;20516;-71
2021/06/27 09:30:32;;;;;;;0.00;0.00;;;;;;;31.22;35.39;98801.16;5093686;28;20031;-73
2021/06/27 09:33:00;;;;;;;0.00;0.00;;;;;;;31.15;35.44;98813.09;5093961;28;20073;-72
2021/06/27 09:35:36;;;;;;;0.10;0.10;;;;;;;31.17;34.61;98807.19;5092515;28;20495;-72
2021/06/27 09:38:24;;;;;;;0.00;0.00;;;;;;;31.13;34.01;98805.25;5093789;28;20475;-73
2021/06/27 09:40:53;;;;;;;0.00;0.00;;;;;;;31.10;34.11;98800.56;5093629;28;20025;-70
2021/06/27 09:43:20;;;;;;;0.00;0.00;;;;;;;31.13;34.42;98798.94;5093686;28;20024;-71
2021/06/27 09:45:46;;;;;;;0.00;0.00;;;;;;;31.10;33.93;98805.31;5093553;28;20039;-72
2021/06/27 09:48:13;;;;;;;0.00;0.00;;;;;;;31.09;33.93;98795.44;5093664;28;20043;-72
2021/06/27 09:50:39;;;;;;;0.00;0.00;;;;;;;31.16;33.81;98792.56;5093506;28;20118;-71
2021/06/27 09:53:04;;;;;;;0.00;0.00;;;;;;;31.20;32.97;98782.25;5093290;28;20514;-71
2021/06/27 09:55:30;;;;;;;0.00;0.00;;;;;;;31.28;33.52;98788.41;5093011;28;20028;-71
2021/06/27 09:58:15;;;;;;;0.00;0.00;;;;;;;31.27;32.72;98782.13;5093337;28;20060;-71
2021/06/27 10:00:41;;;;;;;0.10;0.10;;;;;;;31.30;33.22;98780.50;5093238;28;20028;-71
2021/06/27 10:03:08;;;;;;;0.10;0.10;;;;;;;31.31;32.51;98779.28;5093453;28;20027;-71
2021/06/27 10:05:34;;;;;;;0.00;0.00;;;;;;;31.34;33.12;98780.44;5093071;28;20507;-71
2021/06/27 10:08:00;;;;;;;0.20;0.15;;;;;;;31.38;32.37;98781.13;5093611;28;20462;-72
2021/06/27 10:10:25;;;;;;;0.00;0.00;;;;;;;31.42;32.22;98782.63;5093338;28;20056;-71
2021/06/27 10:12:51;;;;;;;0.00;0.00;;;;;;;31.47;34.08;98770.28;5093066;28;20030;-73
2021/06/27 10:15:16;;;;;;;0.20;0.20;;;;;;;31.57;34.58;98772.06;5092935;28;20051;-71
2021/06/27 10:17:43;;;;;;;0.03;0.03;;;;;;;31.66;32.98;98777.03;5092456;28;20031;-72
2021/06/27 10:20:16;;;;;;;0.00;0.00;;;;;;;31.71;32.62;98771.03;5092743;28;20020;-72
2021/06/27 10:22:43;;;;;;;0.00;0.00;;;;;;;31.78;32.41;98770.84;5092863;28;20059;-72
2021/06/27 10:25:11;;;;;;;;;;;;;;;31.84;31.99;98767.59;5093236;28;20052;-72
2021/06/27 10:27:37;;;;;;;0.00;0.00;;;;;;;31.83;32.27;98763.28;5092714;28;19912;-72
2021/06/27 10:30:06;;;;;;;0.00;0.00;;;;;;;31.83;32.98;98766.81;5092754;28;20494;-71
2021/06/27 10:32:31;;;;;;;0.03;0.03;;;;;;;31.86;32.20;98759.63;5092572;28;20059;-72
2021/06/27 10:34:58;;;;;;;0.00;0.00;;;;;;;31.85;32.56;98758.88;5093093;28;20055;-72
2021/06/27 10:37:35;;;;;;;0.00;0.00;;;;;;;31.81;32.09;98757.38;5092964;28;20507;-72
2021/06/27 10:40:04;;;;;;;0.10;0.10;;;;;;;31.81;33.76;98752.66;5092662;28;20060;-72
2021/06/27 10:42:50;;;;;;;0.00;0.00;;;;;;;31.82;32.68;98745.13;5092656;28;20107;-72
2021/06/27 10:45:17;;;;;;;0.00;0.00;;;;;;;31.79;33.29;98744.00;5092885;28;20027;-71
2021/06/27 10:47:42;;;;;;;0.00;0.00;;;;;;;31.80;33.35;98734.50;5092302;28;20395;-71
2021/06/27 10:50:10;;;;;;;0.08;0.08;;;;;;;31.76;33.72;98740.13;5092458;28;20020;-72
2021/06/27 10:52:51;;;;;;;0.00;0.00;;;;;;;31.78;34.61;98734.91;5092518;28;20048;-72
2021/06/27 10:55:27;;;;;;;0.00;0.00;;;;;;;31.77;34.21;98738.13;5092089;28;20406;-72
2021/06/27 10:57:58;;;;;;;0.00;0.00;;;;;;;31.83;34.05;98743.94;5073836;28;20027;-72
2021/06/27 11:00:26;;;;;;;0.20;0.20;;;;;;;31.85;33.62;98736.75;5092297;28;20028;-72
2021/06/27 11:02:51;;;;;;;0.10;0.10;;;;;;;31.89;34.02;98731.91;5091957;28;20063;-72
2021/06/27 11:05:31;;;;;;;0.00;0.00;;;;;;;31.95;34.35;98723.91;5091904;28;20051;-72
2021/06/27 11:07:58;;;;;;;0.00;0.00;;;;;;;32.00;34.04;98720.63;5091971;28;20028;-72
2021/06/27 11:10:24;;;;;;;0.45;0.45;;;;;;;32.11;34.17;98725.91;5091583;28;20077;-72
2021/06/27 11:12:58;;;;;;;0.00;0.00;;;;;;;32.18;34.00;98722.97;5091894;28;20032;-71
2021/06/27 11:15:35;;;;;;;0.30;0.30;;;;;;;32.25;34.66;98716.50;5092043;28;20020;-71
2021/06/27 11:18:08;;;;;;;0.00;0.00;;;;;;;32.23;33.88;98718.94;5091969;28;20497;-71
2021/06/27 11:20:48;;;;;;;0.47;0.47;;;;;;;32.22;33.49;98718.16;5091532;28;20031;-71
2021/06/27 11:23:14;;;;;;;0.00;0.00;;;;;;;32.24;33.20;98714.97;5091864;28;20515;-71
2021/06/27 11:25:41;;;;;;;0.00;0.00;;;;;;;32.22;33.36;98711.84;5091657;28;20135;-71
2021/06/27 11:28:18;;;;;;;0.00;0.00;;;;;;;32.15;33.55;98704.47;5091516;28;20034;-71
2021/06/27 11:30:45;;;;;;;0.00;0.00;;;;;;;32.14;33.95;98700.16;5091414;28;20024;-71
2021/06/27 11:33:25;;;;;;;0.00;0.00;;;;;;;32.16;33.77;98700.50;5091471;28;20410;-72